Time;durP1;ratioP1;P1;durP2;ratioP2;P2;SDS_P1;SDS_P2;PMS_P1;PMS_P2;Temp;Humidity;BMP_temperature;BMP_pressure;BME280_temperature;BME280_humidity;BME280_pressure;Samples;Min_cycle;Max_cycle;Signal;HPM_P1;HPM_P2
2022/08/01 00:01:35;;;;;;;23.40;20.90;;;18.90;99.90;;;;;;2608173;54;20170;-78
2022/08/01 00:04:00;;;;;;;25.63;19.00;;;18.80;99.90;;;;;;2608193;47;20441;-77
2022/08/01 00:06:26;;;;;;;25.60;21.27;;;18.80;99.90;;;;;;2608516;39;20886;-75
2022/08/01 00:08:52;;;;;;;22.83;20.37;;;18.80;99.90;;;;;;2606829;54;20249;-77
2022/08/01 00:11:18;;;;;;;23.13;19.70;;;18.90;99.90;;;;;;2607426;39;20795;-76
2022/08/01 00:13:43;;;;;;;29.93;22.27;;;18.90;99.90;;;;;;2608210;39;20649;-76
2022/08/01 00:16:09;;;;;;;27.93;20.30;;;18.90;99.90;;;;;;2606280;46;20184;-75
2022/08/01 00:18:35;;;;;;;27.30;22.40;;;18.90;99.90;;;;;;2605461;39;20216;-76
2022/08/01 00:21:02;;;;;;;32.17;25.80;;;18.90;99.90;;;;;;2606805;54;20184;-76
2022/08/01 00:23:28;;;;;;;34.00;27.00;;;19.00;99.90;;;;;;2607628;39;20760;-76
2022/08/01 00:25:53;;;;;;;32.10;26.93;;;19.00;99.90;;;;;;2608080;54;20542;-77
2022/08/01 00:28:20;;;;;;;36.77;24.77;;;18.90;99.90;;;;;;2606962;54;20200;-77
2022/08/01 00:30:45;;;;;;;34.60;27.10;;;19.00;99.90;;;;;;2608190;39;20576;-75
2022/08/01 00:33:11;;;;;;;30.97;27.77;;;19.00;99.90;;;;;;2606881;39;20530;-76
2022/08/01 00:35:36;;;;;;;34.73;28.87;;;19.00;99.90;;;;;;2607157;47;20178;-76
2022/08/01 00:38:02;;;;;;;42.70;28.77;;;18.90;99.90;;;;;;2605893;54;20177;-77
2022/08/01 00:40:28;;;;;;;33.90;28.40;;;18.90;99.90;;;;;;2606243;47;20221;-76
2022/08/01 00:42:54;;;;;;;33.30;28.37;;;19.00;99.90;;;;;;2606029;54;20191;-76
2022/08/01 00:45:19;;;;;;;37.33;29.00;;;18.90;99.90;;;;;;2607839;54;20430;-76
2022/08/01 00:47:45;;;;;;;32.50;25.50;;;18.90;99.90;;;;;;2607058;54;20288;-76
2022/08/01 00:50:11;;;;;;;41.33;28.30;;;19.00;99.90;;;;;;2608050;54;20176;-76
2022/08/01 00:52:38;;;;;;;39.40;28.20;;;19.00;99.90;;;;;;2607657;54;20696;-76
2022/08/01 00:55:04;;;;;;;38.33;27.70;;;18.90;99.90;;;;;;2607254;54;20182;-77
2022/08/01 00:57:30;;;;;;;37.73;27.60;;;18.90;99.90;;;;;;2607123;47;20456;-77
2022/08/01 00:59:56;;;;;;;40.50;28.23;;;18.90;99.90;;;;;;2607967;47;20453;-77
2022/08/01 01:02:21;;;;;;;35.30;28.83;;;18.90;99.90;;;;;;2606508;54;20170;-78
2022/08/01 01:04:47;;;;;;;35.80;27.40;;;18.90;99.90;;;;;;2608232;54;20434;-78
2022/08/01 01:07:17;;;;;;;37.37;27.10;;;19.00;99.90;;;;;;2607529;54;21468;-78
2022/08/01 01:10:22;;;;;;;41.77;29.23;;;18.90;99.90;;;;;;2608520;39;20238;-78
2022/08/01 01:12:59;;;;;;;42.80;30.90;;;19.00;99.90;;;;;;2607633;39;20592;-79
2022/08/01 01:15:56;;;;;;;36.00;27.77;;;19.00;99.90;;;;;;2607858;39;20825;-78
2022/08/01 01:18:27;;;;;;;40.20;29.30;;;19.00;99.90;;;;;;2606946;54;20423;-78
2022/08/01 01:21:17;;;;;;;36.57;28.40;;;19.00;99.90;;;;;;2607580;54;20493;-78
2022/08/01 01:23:57;;;;;;;35.30;28.70;;;19.00;99.90;;;;;;2606932;54;20405;-77
2022/08/01 01:26:47;;;;;;;41.30;28.43;;;19.00;99.90;;;;;;2606758;54;20411;-78
2022/08/01 01:29:20;;;;;;;36.47;27.53;;;19.00;99.90;;;;;;2606378;54;20438;-78
2022/08/01 01:32:12;;;;;;;37.43;27.60;;;18.90;99.90;;;;;;2606370;31;20933;-78
2022/08/01 01:34:42;;;;;;;34.80;25.30;;;19.00;99.90;;;;;;2605807;31;20604;-78
2022/08/01 01:37:15;;;;;;;35.77;24.97;;;19.00;99.90;;;;;;2606681;54;20495;-79
2022/08/01 01:39:42;;;;;;;37.33;26.80;;;18.90;99.90;;;;;;2607025;54;21261;-78
2022/08/01 01:42:08;;;;;;;32.83;25.50;;;18.90;99.90;;;;;;2607340;54;20960;-75
2022/08/01 01:44:35;;;;;;;33.33;24.20;;;19.00;99.90;;;;;;2606370;47;20551;-77
2022/08/01 01:47:02;;;;;;;33.40;23.57;;;18.90;99.90;;;;;;2607090;39;20541;-77
2022/08/01 01:49:29;;;;;;;32.07;26.00;;;19.00;99.90;;;;;;2607689;31;21052;-77
2022/08/01 01:51:57;;;;;;;35.53;25.57;;;18.90;99.90;;;;;;2607238;47;20446;-77
2022/08/01 01:54:28;;;;;;;29.67;24.40;;;18.90;99.90;;;;;;2612466;54;20421;-77
2022/08/01 01:56:58;;;;;;;30.57;26.20;;;18.90;99.90;;;;;;2611627;54;20402;-75
2022/08/01 01:59:28;;;;;;;37.70;25.73;;;18.90;99.90;;;;;;2612491;39;20783;-75
2022/08/01 02:01:57;;;;;;;32.60;25.30;;;18.90;99.90;;;;;;2612195;47;20420;-74
2022/08/01 02:04:25;;;;;;;37.43;26.70;;;18.90;99.90;;;;;;2612906;54;20406;-75
2022/08/01 02:06:52;;;;;;;36.13;25.97;;;18.90;99.90;;;;;;2612791;39;20923;-75
2022/08/01 02:09:20;;;;;;;42.13;30.00;;;18.90;99.90;;;;;;2609701;47;21864;-75
2022/08/01 02:11:48;;;;;;;43.10;29.10;;;18.90;99.90;;;;;;2612963;47;20423;-75
2022/08/01 02:14:15;;;;;;;43.33;30.97;;;18.80;99.90;;;;;;2613550;54;20469;-86
2022/08/01 02:16:44;;;;;;;37.90;27.80;;;18.90;99.90;;;;;;2610006;54;20435;-85
2022/08/01 02:19:10;;;;;;;39.97;29.53;;;18.90;99.90;;;;;;2613860;46;20447;-86
2022/08/01 02:21:59;;;;;;;49.23;28.13;;;18.90;99.90;;;;;;2612973;47;20437;-87
2022/08/01 02:24:28;;;;;;;44.07;29.23;;;18.90;99.90;;;;;;2614220;39;20829;-76
2022/08/01 02:26:57;;;;;;;52.20;34.37;;;18.90;99.90;;;;;;2613322;54;20454;-86
2022/08/01 02:29:32;;;;;;;42.60;28.97;;;18.90;99.90;;;;;;2613949;54;21738;-85
2022/08/01 02:32:00;;;;;;;46.87;31.70;;;18.90;99.90;;;;;;2612116;54;20428;-86
2022/08/01 02:34:31;;;;;;;40.97;30.73;;;18.90;99.90;;;;;;2608324;47;21057;-88
2022/08/01 02:37:00;;;;;;;44.33;29.83;;;18.90;99.90;;;;;;2608869;39;20463;-87
2022/08/01 02:39:28;;;;;;;44.80;30.37;;;18.90;99.90;;;;;;2606465;54;20427;-86
2022/08/01 02:41:59;;;;;;;40.20;30.07;;;18.90;99.90;;;;;;2605981;54;20432;-85
2022/08/01 02:44:30;;;;;;;39.30;28.37;;;18.90;99.90;;;;;;2607199;54;20454;-87
2022/08/01 02:47:04;;;;;;;44.63;29.90;;;18.90;99.90;;;;;;2607903;54;21176;-87
2022/08/01 02:49:37;;;;;;;43.07;30.90;;;18.90;99.90;;;;;;2607463;39;21072;-88
2022/08/01 02:52:07;;;;;;;46.60;29.07;;;18.90;99.90;;;;;;2607644;47;20597;-86
2022/08/01 02:54:35;;;;;;;39.83;28.53;;;18.90;99.90;;;;;;2607248;54;20447;-86
2022/08/01 02:57:03;;;;;;;44.40;28.93;;;18.90;99.90;;;;;;2607067;54;21075;-85
2022/08/01 02:59:31;;;;;;;39.93;26.17;;;18.90;99.90;;;;;;2607195;54;22146;-86
2022/08/01 03:01:59;;;;;;;44.03;29.83;;;18.90;99.90;;;;;;2607348;54;21440;-85
2022/08/01 03:04:26;;;;;;;39.17;27.97;;;18.90;99.90;;;;;;2607782;54;20459;-86
2022/08/01 03:06:54;;;;;;;46.20;30.40;;;18.90;99.90;;;;;;2607720;39;20862;-84
2022/08/01 03:09:21;;;;;;;44.60;29.73;;;18.90;99.90;;;;;;2607006;47;20506;-87
2022/08/01 03:11:48;;;;;;;37.90;29.10;;;18.90;99.90;;;;;;2609272;39;20965;-86
2022/08/01 03:14:15;;;;;;;43.90;29.67;;;18.80;99.90;;;;;;2609308;54;21427;-86
2022/08/01 03:16:43;;;;;;;42.00;27.73;;;18.90;99.90;;;;;;2609009;39;20915;-86
2022/08/01 03:19:11;;;;;;;41.07;26.77;;;18.80;99.90;;;;;;2607461;47;21337;-85
2022/08/01 03:21:38;;;;;;;41.93;28.83;;;18.80;99.90;;;;;;2608212;47;20540;-86
2022/08/01 03:24:06;;;;;;;50.60;31.70;;;18.80;99.90;;;;;;2608552;54;20470;-86
2022/08/01 03:26:35;;;;;;;47.03;29.63;;;18.80;99.90;;;;;;2607840;47;20470;-85
2022/08/01 03:29:12;;;;;;;45.13;29.90;;;18.80;99.90;;;;;;2607091;39;20516;-86
2022/08/01 03:31:42;;;;;;;45.50;30.67;;;18.80;99.90;;;;;;2606479;39;20798;-86
2022/08/01 03:34:08;;;;;;;39.93;29.50;;;18.80;99.90;;;;;;2612450;54;20470;-86
2022/08/01 03:36:48;;;;;;;42.23;27.90;;;18.80;99.90;;;;;;2611685;54;20558;-77
2022/08/01 03:39:15;;;;;;;42.17;27.97;;;18.80;99.90;;;;;;2612332;54;20425;-77
2022/08/01 03:41:46;;;;;;;46.30;30.37;;;18.80;99.90;;;;;;2612379;47;20424;-75
2022/08/01 03:44:17;;;;;;;41.60;28.00;;;18.80;99.90;;;;;;2612329;47;20441;-76
2022/08/01 03:46:56;;;;;;;45.73;30.30;;;18.80;99.90;;;;;;2610423;54;20454;-74
2022/08/01 03:49:24;;;;;;;45.43;28.10;;;18.80;99.90;;;;;;2607725;54;20485;-74
2022/08/01 03:51:52;;;;;;;41.30;27.60;;;18.80;99.90;;;;;;2611949;54;20462;-77
2022/08/01 03:54:24;;;;;;;39.17;29.93;;;18.80;99.90;;;;;;2612535;54;20437;-77
2022/08/01 03:56:51;;;;;;;41.97;28.13;;;18.80;99.90;;;;;;2611545;54;20444;-76
2022/08/01 03:59:18;;;;;;;43.57;28.77;;;18.80;99.90;;;;;;2612119;54;20431;-76
2022/08/01 04:01:45;;;;;;;43.93;28.57;;;18.80;99.90;;;;;;2613154;54;20468;-76
2022/08/01 04:04:12;;;;;;;36.03;25.83;;;18.80;99.90;;;;;;2612313;54;20406;-76
2022/08/01 04:06:44;;;;;;;37.60;25.77;;;18.80;99.90;;;;;;2611627;54;20434;-85
2022/08/01 04:09:11;;;;;;;34.70;23.77;;;18.80;99.90;;;;;;2614488;54;20420;-85
2022/08/01 04:11:38;;;;;;;35.73;23.13;;;18.70;99.90;;;;;;2613789;54;20538;-76
2022/08/01 04:14:03;;;;;;;31.63;23.47;;;18.70;99.90;;;;;;2614231;46;20433;-77
2022/08/01 04:16:29;;;;;;;31.13;20.97;;;18.70;99.90;;;;;;2613328;54;20422;-74
2022/08/01 04:18:55;;;;;;;31.00;19.83;;;18.70;99.90;;;;;;2614460;39;20601;-75
2022/08/01 04:21:23;;;;;;;29.23;21.40;;;18.70;99.90;;;;;;2608610;54;20176;-77
2022/08/01 04:23:51;;;;;;;25.10;18.77;;;18.80;99.90;;;;;;2607500;54;20441;-75
2022/08/01 04:26:18;;;;;;;21.50;17.57;;;18.70;99.90;;;;;;2607605;54;21946;-76
2022/08/01 04:28:44;;;;;;;28.13;18.90;;;18.70;99.90;;;;;;2608077;31;20634;-76
2022/08/01 04:31:13;;;;;;;28.40;18.20;;;18.70;99.90;;;;;;2607247;54;20438;-76
2022/08/01 04:33:46;;;;;;;43.30;21.50;;;18.80;99.90;;;;;;2606764;54;22330;-76
2022/08/01 04:36:14;;;;;;;32.73;20.77;;;18.80;99.90;;;;;;2607541;54;20442;-76
2022/08/01 04:38:42;;;;;;;33.03;20.07;;;18.80;99.90;;;;;;2605769;47;20408;-76
2022/08/01 04:41:10;;;;;;;22.20;18.50;;;18.80;99.90;;;;;;2606557;39;20501;-76
2022/08/01 04:43:41;;;;;;;22.73;17.70;;;18.70;99.90;;;;;;2606455;54;20538;-76
2022/08/01 04:46:07;;;;;;;28.43;17.57;;;18.80;99.90;;;;;;2605705;54;20477;-76
2022/08/01 04:48:36;;;;;;;23.57;18.27;;;18.80;99.90;;;;;;2605359;54;20421;-76
2022/08/01 04:51:02;;;;;;;22.87;17.80;;;18.80;99.90;;;;;;2604103;54;20430;-76
2022/08/01 04:53:27;;;;;;;22.20;17.83;;;18.80;99.90;;;;;;2604538;54;20454;-76
2022/08/01 04:55:53;;;;;;;24.33;17.50;;;18.90;99.90;;;;;;2603429;47;20170;-76
2022/08/01 04:58:19;;;;;;;19.60;15.77;;;18.90;99.90;;;;;;2604577;54;20189;-76
2022/08/01 05:00:46;;;;;;;23.87;16.87;;;18.90;99.90;;;;;;2606724;46;20252;-77
2022/08/01 05:03:11;;;;;;;22.33;17.40;;;18.90;99.90;;;;;;2605736;39;20247;-76
2022/08/01 05:05:37;;;;;;;22.80;17.70;;;18.80;99.90;;;;;;2604842;39;20518;-76
2022/08/01 05:08:03;;;;;;;23.37;16.83;;;18.90;99.90;;;;;;2606273;47;20170;-77
2022/08/01 05:10:29;;;;;;;21.10;16.10;;;18.90;99.90;;;;;;2605709;54;20280;-76
2022/08/01 05:12:54;;;;;;;20.87;17.07;;;18.90;99.90;;;;;;2605945;54;20176;-77
2022/08/01 05:15:21;;;;;;;22.50;16.37;;;18.90;99.90;;;;;;2606060;47;20403;-76
2022/08/01 05:17:47;;;;;;;25.03;17.67;;;18.90;99.90;;;;;;2606735;54;20281;-77
2022/08/01 05:20:12;;;;;;;19.00;16.37;;;18.90;99.90;;;;;;2607989;54;20459;-76
2022/08/01 05:22:38;;;;;;;21.63;16.57;;;18.90;99.90;;;;;;2606381;54;20418;-78
2022/08/01 05:25:05;;;;;;;27.67;18.40;;;18.90;99.90;;;;;;2604546;47;20170;-77
2022/08/01 05:27:31;;;;;;;22.70;19.93;;;19.00;99.90;;;;;;2599753;39;20506;-79
2022/08/01 05:29:57;;;;;;;20.93;18.43;;;19.00;99.90;;;;;;2603117;39;20492;-79
2022/08/01 05:32:23;;;;;;;24.30;18.07;;;19.00;99.90;;;;;;2601758;54;20989;-79
2022/08/01 05:34:49;;;;;;;24.10;18.40;;;19.00;99.90;;;;;;2603286;54;20184;-79
2022/08/01 05:37:14;;;;;;;26.40;19.10;;;19.00;99.90;;;;;;2602066;39;21129;-80
2022/08/01 05:39:40;;;;;;;22.93;18.07;;;19.10;99.90;;;;;;2603676;54;20192;-78
2022/08/01 05:42:06;;;;;;;19.33;16.07;;;19.10;99.90;;;;;;2602410;54;20173;-77
2022/08/01 05:44:32;;;;;;;21.37;18.07;;;19.20;99.90;;;;;;2601569;39;20272;-79
2022/08/01 05:46:57;;;;;;;22.53;17.93;;;19.20;99.90;;;;;;2602361;54;20772;-79
2022/08/01 05:49:23;;;;;;;21.53;17.77;;;19.20;99.90;;;;;;2604180;47;20375;-79
2022/08/01 05:51:49;;;;;;;22.50;19.27;;;19.30;99.90;;;;;;2602810;54;20209;-79
2022/08/01 05:54:15;;;;;;;26.57;19.10;;;19.10;99.90;;;;;;2602887;54;20161;-79
2022/08/01 05:56:40;;;;;;;21.40;18.30;;;19.10;99.90;;;;;;2605639;54;20450;-80
2022/08/01 05:59:06;;;;;;;20.00;16.93;;;19.10;99.90;;;;;;2606668;54;20173;-81
2022/08/01 06:01:32;;;;;;;24.73;18.67;;;19.10;99.90;;;;;;2604469;47;20172;-79
2022/08/01 06:03:58;;;;;;;20.10;16.70;;;19.00;99.90;;;;;;2605216;47;20251;-79
2022/08/01 06:06:24;;;;;;;18.70;16.63;;;19.10;99.90;;;;;;2605058;54;20553;-79
2022/08/01 06:08:50;;;;;;;23.47;17.43;;;19.30;99.90;;;;;;2603875;54;20245;-79
2022/08/01 06:11:15;;;;;;;19.53;16.97;;;19.30;99.90;;;;;;2606516;54;20163;-79
2022/08/01 06:13:41;;;;;;;21.27;16.37;;;19.40;99.90;;;;;;2605263;54;20438;-79
2022/08/01 06:16:07;;;;;;;21.23;16.73;;;19.50;99.90;;;;;;2606086;39;20886;-78
2022/08/01 06:18:33;;;;;;;22.57;17.40;;;19.50;99.90;;;;;;2607390;39;20207;-79
2022/08/01 06:20:58;;;;;;;18.13;15.80;;;19.50;99.90;;;;;;2605787;46;20188;-78
2022/08/01 06:23:24;;;;;;;19.63;15.93;;;19.50;99.90;;;;;;2607732;46;20666;-77
2022/08/01 06:25:53;;;;;;;24.30;17.97;;;19.60;99.90;;;;;;2608090;54;20175;-78
2022/08/01 06:28:19;;;;;;;17.93;15.17;;;19.60;99.90;;;;;;2607478;39;20290;-79
2022/08/01 06:30:45;;;;;;;18.80;16.70;;;19.80;99.90;;;;;;2607121;54;20419;-79
2022/08/01 06:33:11;;;;;;;20.20;16.27;;;19.90;99.90;;;;;;2605943;54;20464;-78
2022/08/01 06:35:36;;;;;;;16.40;14.70;;;20.30;99.90;;;;;;2607819;46;20178;-78
2022/08/01 06:38:02;;;;;;;16.83;15.10;;;21.30;99.90;;;;;;2605705;54;20982;-78
2022/08/01 06:40:28;;;;;;;17.50;15.80;;;21.10;99.90;;;;;;2604785;54;20729;-79
2022/08/01 06:42:54;;;;;;;18.50;16.50;;;21.10;99.90;;;;;;2607375;54;20446;-78
2022/08/01 06:45:22;;;;;;;16.77;14.47;;;21.20;99.90;;;;;;2606992;39;20229;-78
2022/08/01 06:47:48;;;;;;;16.33;13.10;;;20.80;99.90;;;;;;2604347;54;20440;-78
2022/08/01 06:50:14;;;;;;;14.37;12.87;;;20.80;99.90;;;;;;2605855;54;20564;-78
2022/08/01 06:52:41;;;;;;;19.13;12.70;;;20.40;99.90;;;;;;2608358;31;20860;-78
2022/08/01 06:55:07;;;;;;;13.73;12.33;;;20.20;99.90;;;;;;2605597;54;21088;-78
2022/08/01 06:57:33;;;;;;;20.63;13.70;;;20.30;99.90;;;;;;2608492;54;20417;-81
2022/08/01 07:00:08;;;;;;;12.87;11.40;;;20.20;99.90;;;;;;2606685;39;21372;-80
2022/08/01 07:02:34;;;;;;;12.87;11.20;;;20.20;99.90;;;;;;2607394;47;20435;-80
2022/08/01 07:05:00;;;;;;;10.50;9.43;;;21.20;99.90;;;;;;2607477;54;20418;-81
2022/08/01 07:07:26;;;;;;;10.00;9.00;;;21.30;99.90;;;;;;2606278;54;20161;-81
2022/08/01 07:09:52;;;;;;;8.23;7.50;;;21.50;99.90;;;;;;2605537;54;20431;-80
2022/08/01 07:12:18;;;;;;;8.70;7.90;;;21.20;99.90;;;;;;2606424;54;20484;-80
2022/08/01 07:14:43;;;;;;;9.70;8.67;;;21.20;99.90;;;;;;2605183;54;20189;-80
2022/08/01 07:17:09;;;;;;;9.20;8.30;;;22.30;99.90;;;;;;2603703;54;20254;-80
2022/08/01 07:19:35;;;;;;;9.17;8.20;;;22.00;99.90;;;;;;2613103;54;20247;-80
2022/08/01 07:22:00;;;;;;;7.10;6.50;;;22.00;99.90;;;;;;2612925;54;20194;-75
2022/08/01 07:24:26;;;;;;;7.63;6.60;;;21.30;99.90;;;;;;2609213;47;20218;-75
2022/08/01 07:26:53;;;;;;;8.07;6.90;;;22.10;99.90;;;;;;2612934;47;20175;-78
2022/08/01 07:29:20;;;;;;;5.70;5.17;;;23.10;99.90;;;;;;2612526;54;20818;-77
2022/08/01 07:31:46;;;;;;;6.80;5.50;;;22.00;99.90;;;;;;2614473;54;20431;-83
2022/08/01 07:34:12;;;;;;;6.70;6.00;;;22.90;99.90;;;;;;2611496;54;20977;-83
2022/08/01 07:36:38;;;;;;;5.20;4.70;;;22.30;99.90;;;;;;2612952;54;20453;-79
2022/08/01 07:39:03;;;;;;;5.30;3.73;;;22.10;99.90;;;;;;2610440;39;20584;-79
2022/08/01 07:41:29;;;;;;;3.90;3.60;;;22.10;99.90;;;;;;2613038;54;20175;-80
2022/08/01 07:43:55;;;;;;;5.00;3.93;;;21.50;99.90;;;;;;2611166;47;20218;-80
2022/08/01 07:46:20;;;;;;;4.30;4.00;;;21.60;99.90;;;;;;2613237;39;20554;-76
2022/08/01 07:48:46;;;;;;;9.73;4.63;;;21.90;99.90;;;;;;2612807;54;20175;-75
2022/08/01 07:51:11;;;;;;;4.53;4.13;;;22.20;99.90;;;;;;2612100;54;20167;-75
2022/08/01 07:53:37;;;;;;;6.00;4.50;;;22.60;99.90;;;;;;2613771;46;20173;-76
2022/08/01 07:56:05;;;;;;;6.17;3.93;;;22.50;99.90;;;;;;2612531;54;20190;-80
2022/08/01 07:58:32;;;;;;;5.30;4.80;;;22.50;99.90;;;;;;2607665;54;20404;-79
2022/08/01 08:00:57;;;;;;;6.70;4.50;;;22.70;99.90;;;;;;2606583;54;20431;-79
2022/08/01 08:03:23;;;;;;;5.60;4.30;;;23.20;99.90;;;;;;2606272;54;20416;-79
2022/08/01 08:05:49;;;;;;;4.53;4.13;;;22.80;99.90;;;;;;2607620;39;20627;-80
2022/08/01 08:08:15;;;;;;;6.33;4.37;;;22.90;99.90;;;;;;2607039;46;20171;-79
2022/08/01 08:10:41;;;;;;;4.93;3.70;;;23.20;99.90;;;;;;2608002;54;20193;-80
2022/08/01 08:13:07;;;;;;;4.83;3.77;;;24.70;99.90;;;;;;2606354;47;20439;-80
2022/08/01 08:15:32;;;;;;;3.70;3.07;;;23.90;99.90;;;;;;2606008;39;21020;-79
2022/08/01 08:17:58;;;;;;;5.07;3.87;;;23.70;99.90;;;;;;2607757;54;20178;-80
2022/08/01 08:20:28;;;;;;;4.30;3.90;;;22.90;99.90;;;;;;2607721;54;20695;-80
2022/08/01 08:22:55;;;;;;;3.70;3.40;;;24.30;99.90;;;;;;2607966;54;20178;-81
2022/08/01 08:25:21;;;;;;;3.00;2.80;;;24.50;99.90;;;;;;2605579;54;20416;-80
2022/08/01 08:27:47;;;;;;;3.23;2.73;;;23.60;99.90;;;;;;2605908;54;20500;-81
2022/08/01 08:30:14;;;;;;;3.07;2.87;;;23.40;99.90;;;;;;2605714;31;20647;-80
2022/08/01 08:32:40;;;;;;;2.83;2.63;;;23.70;99.90;;;;;;2606229;54;21057;-81
2022/08/01 08:35:07;;;;;;;3.47;3.17;;;24.60;99.90;;;;;;2607196;54;20423;-81
2022/08/01 08:37:34;;;;;;;3.70;3.03;;;24.00;99.90;;;;;;2606874;54;20531;-82
2022/08/01 08:39:59;;;;;;;3.87;3.57;;;25.00;99.90;;;;;;2606075;54;20439;-81
2022/08/01 08:42:25;;;;;;;3.33;3.03;;;24.80;99.90;;;;;;2607106;54;20420;-81
2022/08/01 08:44:51;;;;;;;3.77;3.57;;;25.40;99.90;;;;;;2603220;31;20681;-82
2022/08/01 08:47:18;;;;;;;3.70;3.40;;;24.10;99.90;;;;;;2604089;54;20261;-80
2022/08/01 08:49:45;;;;;;;5.33;4.83;;;23.80;99.90;;;;;;2606165;39;20465;-81
2022/08/01 08:52:12;;;;;;;3.90;3.60;;;22.80;99.90;;;;;;2606594;47;20427;-82
2022/08/01 08:54:40;;;;;;;3.90;3.70;;;22.70;99.90;;;;;;2606554;47;20854;-81
2022/08/01 08:57:06;;;;;;;4.10;3.80;;;22.50;99.90;;;;;;2601881;54;20478;-82
2022/08/01 08:59:32;;;;;;;3.40;3.20;;;22.40;99.90;;;;;;2613291;54;21088;-82
2022/08/01 09:01:58;;;;;;;4.50;4.10;;;22.40;99.90;;;;;;2612132;54;20529;-82
2022/08/01 09:04:26;;;;;;;3.37;3.07;;;22.70;99.90;;;;;;2611865;54;20180;-82
2022/08/01 09:06:52;;;;;;;4.40;4.00;;;22.70;99.90;;;;;;2611432;54;20991;-77
2022/08/01 09:09:18;;;;;;;4.73;3.83;;;23.60;99.90;;;;;;2610707;54;20470;-77
2022/08/01 09:11:44;;;;;;;3.97;3.57;;;23.90;99.90;;;;;;2611742;54;20432;-82
2022/08/01 09:14:13;;;;;;;3.87;3.57;;;24.00;99.90;;;;;;2611869;54;20174;-82
2022/08/01 09:16:42;;;;;;;4.17;3.90;;;23.60;99.90;;;;;;2606929;54;20158;-81
2022/08/01 09:19:10;;;;;;;4.80;4.50;;;23.30;99.90;;;;;;2609089;54;21438;-81
2022/08/01 09:21:36;;;;;;;4.10;3.80;;;22.80;99.90;;;;;;2612934;39;20812;-84
2022/08/01 09:24:05;;;;;;;3.40;3.20;;;23.90;99.90;;;;;;2611590;54;20454;-84
2022/08/01 09:26:35;;;;;;;3.63;3.33;;;23.40;99.90;;;;;;2610966;39;20847;-76
2022/08/01 09:29:04;;;;;;;3.20;2.90;;;24.90;99.90;;;;;;2612041;54;20420;-77
2022/08/01 09:31:40;;;;;;;3.40;2.90;;;25.70;99.90;;;;;;2607772;54;20522;-75
2022/08/01 09:34:07;;;;;;;3.13;2.93;;;24.90;92.40;;;;;;2610981;39;20865;-76
2022/08/01 09:36:57;;;;;;;3.40;3.20;;;24.80;92.10;;;;;;2613545;54;20403;-81
2022/08/01 09:39:28;;;;;;;3.20;2.93;;;24.60;92.10;;;;;;2612484;39;20866;-79
2022/08/01 09:41:56;;;;;;;3.70;3.40;;;24.50;99.10;;;;;;2613449;39;21007;-74
2022/08/01 09:44:42;;;;;;;4.60;3.83;;;24.60;99.90;;;;;;2613588;46;20439;-75
2022/08/01 09:47:08;;;;;;;3.63;3.43;;;24.40;99.90;;;;;;2611639;47;20450;-72
2022/08/01 09:49:35;;;;;;;3.20;3.00;;;24.20;99.90;;;;;;2608147;54;20423;-73
2022/08/01 09:52:16;;;;;;;4.20;3.90;;;24.40;99.90;;;;;;2606336;31;20695;-74
2022/08/01 09:54:44;;;;;;;3.63;3.43;;;25.10;99.90;;;;;;2607802;54;20443;-73
2022/08/01 09:57:16;;;;;;;4.43;4.13;;;25.00;99.90;;;;;;2604640;54;20427;-73
2022/08/01 09:59:49;;;;;;;3.60;3.30;;;24.10;99.90;;;;;;2607127;54;20546;-73
2022/08/01 10:02:31;;;;;;;4.23;3.47;;;23.40;99.90;;;;;;2606934;54;20422;-73
2022/08/01 10:04:57;;;;;;;4.50;3.73;;;25.00;99.90;;;;;;2607348;47;20434;-73
2022/08/01 10:07:22;;;;;;;3.80;3.60;;;25.10;95.00;;;;;;2605810;54;20448;-74
2022/08/01 10:09:48;;;;;;;3.80;3.60;;;25.00;94.30;;;;;;2606488;54;20163;-73
2022/08/01 10:12:16;;;;;;;3.80;3.50;;;24.00;94.40;;;;;;2608338;39;20310;-73
2022/08/01 10:14:44;;;;;;;5.00;4.60;;;24.10;97.50;;;;;;2607313;54;20344;-73
2022/08/01 10:17:13;;;;;;;4.97;4.03;;;23.80;95.70;;;;;;2606086;54;20435;-74
2022/08/01 10:19:41;;;;;;;3.97;3.77;;;23.80;94.20;;;;;;2607062;54;20447;-74
2022/08/01 10:22:09;;;;;;;4.17;3.97;;;24.00;93.90;;;;;;2606764;39;20512;-74
2022/08/01 10:24:40;;;;;;;4.30;4.00;;;23.60;99.90;;;;;;2606835;39;20858;-74
2022/08/01 10:27:10;;;;;;;4.40;4.10;;;23.20;99.90;;;;;;2606088;54;20458;-74
2022/08/01 10:29:49;;;;;;;4.83;4.40;;;23.60;99.90;;;;;;2605764;39;20548;-73
2022/08/01 10:32:17;;;;;;;4.23;3.93;;;23.00;99.90;;;;;;2606558;54;20441;-74
2022/08/01 10:34:43;;;;;;;3.73;3.53;;;23.60;99.90;;;;;;2607954;39;21403;-74
2022/08/01 10:37:09;;;;;;;3.93;3.70;;;23.70;99.90;;;;;;2607028;54;20434;-74
2022/08/01 10:39:35;;;;;;;4.10;3.80;;;23.70;99.90;;;;;;2606745;47;20443;-74
2022/08/01 10:42:02;;;;;;;2.87;2.67;;;23.70;99.90;;;;;;2606412;39;20822;-75
2022/08/01 10:44:30;;;;;;;3.37;3.13;;;23.40;99.90;;;;;;2604224;39;20618;-74
2022/08/01 10:47:11;;;;;;;3.60;3.30;;;22.80;99.90;;;;;;2603516;47;20495;-74
2022/08/01 10:49:47;;;;;;;3.70;3.50;;;22.70;99.90;;;;;;2608910;54;20415;-74
2022/08/01 10:52:19;;;;;;;5.73;3.33;;;22.80;99.90;;;;;;2613218;47;20419;-73
2022/08/01 10:54:45;;;;;;;3.10;2.90;;;23.40;99.90;;;;;;2611695;54;20427;-74
2022/08/01 10:57:11;;;;;;;3.67;3.47;;;23.40;99.90;;;;;;2612954;54;20564;-76
2022/08/01 10:59:51;;;;;;;3.40;3.20;;;23.50;99.90;;;;;;2610179;54;20178;-75
2022/08/01 11:02:32;;;;;;;4.40;3.60;;;23.80;99.90;;;;;;2612393;54;20491;-74
2022/08/01 11:05:02;;;;;;;4.07;3.77;;;25.30;89.30;;;;;;2605431;54;20423;-74
2022/08/01 11:07:41;;;;;;;3.40;3.20;;;25.90;75.10;;;;;;2606176;54;20444;-75
2022/08/01 11:10:25;;;;;;;4.23;3.87;;;26.00;66.60;;;;;;2603936;54;20988;-75
2022/08/01 11:12:51;;;;;;;2.90;2.80;;;25.50;72.30;;;;;;2604127;54;20436;-75
2022/08/01 11:15:24;;;;;;;4.00;3.80;;;24.90;76.50;;;;;;2604933;47;20437;-75
2022/08/01 11:17:51;;;;;;;3.50;3.40;;;24.50;91.10;;;;;;2606261;47;20713;-75
2022/08/01 11:20:22;;;;;;;3.93;3.73;;;23.80;99.00;;;;;;2605647;47;20419;-75
2022/08/01 11:23:00;;;;;;;3.70;3.50;;;23.60;99.90;;;;;;2604409;54;20431;-77
2022/08/01 11:25:26;;;;;;;4.13;3.83;;;23.20;99.90;;;;;;2638606;36;20501;-75
2022/08/01 11:28:14;;;;;;;3.10;3.00;;;23.10;99.90;;;;;;2601898;46;20453;-76
2022/08/01 11:30:48;;;;;;;3.67;3.37;;;23.00;99.90;;;;;;2607392;39;20494;-75
2022/08/01 11:33:15;;;;;;;3.53;3.33;;;23.00;99.90;;;;;;2605897;54;20428;-75
2022/08/01 11:36:09;;;;;;;3.70;3.50;;;23.40;99.90;;;;;;2606558;46;20431;-76
2022/08/01 11:38:37;;;;;;;5.07;4.13;;;24.50;94.00;;;;;;2605545;54;20431;-76
2022/08/01 11:41:30;;;;;;;4.03;3.83;;;25.40;79.00;;;;;;2606008;54;20474;-75
2022/08/01 11:43:57;;;;;;;3.93;3.73;;;25.90;60.60;;;;;;2607526;39;20915;-75
2022/08/01 11:46:45;;;;;;;4.13;3.93;;;25.20;64.30;;;;;;2605694;54;21036;-75
2022/08/01 11:49:31;;;;;;;4.43;4.23;;;24.70;70.60;;;;;;2607663;54;20404;-75
2022/08/01 11:52:10;;;;;;;4.17;3.97;;;25.00;78.60;;;;;;2608542;31;20941;-75
2022/08/01 11:54:43;;;;;;;3.73;3.63;;;24.60;69.10;;;;;;2607916;54;20416;-75
2022/08/01 11:57:11;;;;;;;3.97;3.77;;;25.30;73.30;;;;;;2608156;31;20933;-75
2022/08/01 11:59:52;;;;;;;3.70;3.40;;;24.80;71.20;;;;;;2607340;54;20957;-76
2022/08/01 12:02:29;;;;;;;4.40;4.20;;;24.30;78.50;;;;;;2606197;54;20423;-76
2022/08/01 12:05:05;;;;;;;4.40;4.13;;;23.80;82.90;;;;;;2604199;54;20653;-75
2022/08/01 12:07:32;;;;;;;4.20;4.00;;;23.80;93.40;;;;;;2605688;54;20430;-76
2022/08/01 12:10:06;;;;;;;4.50;4.30;;;23.80;89.40;;;;;;2603123;54;20456;-76
2022/08/01 12:12:35;;;;;;;4.30;4.00;;;24.30;85.50;;;;;;2601892;54;20410;-76
2022/08/01 12:15:08;;;;;;;4.80;4.50;;;24.60;83.40;;;;;;2604809;54;20454;-76
2022/08/01 12:17:48;;;;;;;4.40;4.10;;;25.00;70.70;;;;;;2606383;39;20896;-76
2022/08/01 12:20:20;;;;;;;4.97;4.70;;;26.10;53.60;;;;;;2606633;54;20451;-76
2022/08/01 12:22:46;;;;;;;4.60;4.40;;;26.00;48.20;;;;;;2605756;54;20475;-76
2022/08/01 12:25:14;;;;;;;4.90;4.70;;;25.80;45.70;;;;;;2605529;39;20476;-76
2022/08/01 12:27:42;;;;;;;5.07;4.77;;;26.60;47.30;;;;;;2604206;54;20450;-76
2022/08/01 12:30:13;;;;;;;5.33;5.13;;;26.10;37.20;;;;;;2606216;54;22095;-76
2022/08/01 12:32:40;;;;;;;5.23;5.03;;;26.10;40.00;;;;;;2603404;54;20424;-76
2022/08/01 12:35:27;;;;;;;5.40;5.20;;;25.50;44.10;;;;;;2602470;54;20516;-76
2022/08/01 12:37:58;;;;;;;5.67;5.37;;;25.90;40.50;;;;;;2605406;54;20429;-76
2022/08/01 12:40:26;;;;;;;5.40;5.20;;;26.10;43.00;;;;;;2606426;54;20461;-77
2022/08/01 12:42:58;;;;;;;5.30;4.90;;;25.60;43.10;;;;;;2605908;54;20453;-76
2022/08/01 12:45:42;;;;;;;5.00;4.80;;;25.50;57.70;;;;;;2605836;39;20523;-77